createdAt,value
2017-05-10T07:26:53.973Z,1005.65
2017-05-10T07:27:55.407Z,1005.62
2017-05-10T07:28:56.873Z,1005.67
2017-05-10T07:29:58.432Z,1005.63
2017-05-10T07:31:00.172Z,1005.67
2017-05-10T07:32:01.599Z,1005.64
2017-05-10T07:33:03.073Z,1005.66
2017-05-10T07:34:04.509Z,1005.65
2017-05-10T07:35:06.127Z,1005.68
2017-05-10T07:36:07.575Z,1005.68
2017-05-10T07:37:09.067Z,1005.63
2017-05-10T07:38:10.531Z,1005.63
2017-05-10T07:39:12.136Z,1005.66
2017-05-10T07:40:14.058Z,1005.63
2017-05-10T07:41:15.610Z,1005.64
2017-05-10T07:42:17.242Z,1005.63
2017-05-10T07:43:18.690Z,1005.59
2017-05-10T07:44:20.068Z,1005.59
2017-05-10T07:45:21.503Z,1005.57
2017-05-10T07:46:24.049Z,1005.58
2017-05-10T07:47:25.500Z,1005.58
2017-05-10T07:48:26.974Z,1005.57
2017-05-10T07:49:28.562Z,1005.53
2017-05-10T07:50:29.886Z,1005.58
2017-05-10T07:51:31.331Z,1005.58
2017-05-10T07:52:32.771Z,1005.58
2017-05-10T07:53:34.206Z,1005.53
2017-05-10T07:54:35.638Z,1005.57
2017-05-10T07:55:37.172Z,1005.51
2017-05-10T07:56:38.737Z,1005.52
2017-05-10T07:57:40.221Z,1005.51
2017-05-10T07:58:41.667Z,1005.46
2017-05-10T07:59:43.109Z,1005.45
2017-05-10T08:00:44.606Z,1005.48
2017-05-10T08:01:46.077Z,1005.45
2017-05-10T08:02:47.524Z,1005.44
2017-05-10T08:03:49.009Z,1005.42
2017-05-10T08:04:50.456Z,1005.41
2017-05-10T08:05:51.912Z,1005.41
2017-05-10T08:06:53.401Z,1005.42
2017-05-10T08:07:54.912Z,1005.47
2017-05-10T08:08:56.363Z,1005.47
2017-05-10T08:09:57.909Z,1005.46
2017-05-10T08:10:59.359Z,1005.48
2017-05-10T08:12:00.795Z,1005.45
2017-05-10T08:13:02.233Z,1005.42
2017-05-10T08:14:03.668Z,1005.42
2017-05-10T08:15:05.107Z,1005.44
2017-05-10T08:16:06.764Z,1005.39
2017-05-10T08:17:08.207Z,1005.40
2017-05-10T08:18:09.643Z,1005.42
2017-05-10T08:19:11.089Z,1005.40
2017-05-10T08:20:12.523Z,1005.42
2017-05-10T08:21:13.971Z,1005.41
2017-05-10T08:22:15.406Z,1005.41
2017-05-10T08:23:16.844Z,1005.40
2017-05-10T08:24:18.317Z,1005.37
2017-05-10T08:25:19.750Z,1005.38
2017-05-10T08:26:21.188Z,1005.33
2017-05-10T08:27:22.662Z,1005.36
2017-05-10T08:28:24.098Z,1005.36
2017-05-10T08:29:25.532Z,1005.35
2017-05-10T08:30:27.032Z,1005.36
2017-05-10T08:31:29.405Z,1005.36
2017-05-10T08:32:30.994Z,1005.38
2017-05-10T08:33:32.430Z,1005.38
2017-05-10T08:34:33.872Z,1005.34
2017-05-10T08:35:35.349Z,1005.37
2017-05-10T08:36:37.006Z,1005.36
2017-05-10T08:37:38.609Z,1005.36
2017-05-10T08:38:40.125Z,1005.33
2017-05-10T08:39:41.569Z,1005.32
2017-05-10T08:40:43.111Z,1005.28
2017-05-10T08:41:44.583Z,1005.31
2017-05-10T08:42:46.159Z,1005.27
2017-05-10T08:43:47.836Z,1005.23
2017-05-10T08:44:49.428Z,1005.25
2017-05-10T08:45:51.069Z,1005.23
2017-05-10T08:46:52.518Z,1005.21
2017-05-10T08:47:53.964Z,1005.17
2017-05-10T08:48:55.402Z,1005.20
2017-05-10T08:49:56.980Z,1005.15
2017-05-10T08:50:58.541Z,1005.15
2017-05-10T08:52:00.056Z,1005.08
2017-05-10T08:53:01.600Z,1005.08
2017-05-10T08:54:03.089Z,1005.10
2017-05-10T08:55:04.528Z,1005.07
2017-05-10T08:56:05.964Z,1005.09
2017-05-10T08:57:07.422Z,1005.07
2017-05-10T08:58:08.869Z,1005.12
2017-05-10T08:59:10.461Z,1005.08
2017-05-10T09:00:11.918Z,1005.07
2017-05-10T09:01:13.405Z,1005.11
2017-05-10T09:02:14.965Z,1005.09
2017-05-10T09:03:16.408Z,1005.06
2017-05-10T09:04:17.846Z,1005.04
2017-05-10T09:05:19.283Z,1005.08
2017-05-10T09:06:20.723Z,1005.04
2017-05-10T09:07:22.162Z,1005.02
2017-05-10T09:08:23.596Z,1004.99
2017-05-10T09:09:25.031Z,1004.99
2017-05-10T09:10:27.310Z,1004.96
2017-05-10T09:11:28.788Z,1004.95
2017-05-10T09:12:30.254Z,1004.98
2017-05-10T09:13:31.693Z,1004.97
2017-05-10T09:14:33.123Z,1004.98
2017-05-10T09:15:35.552Z,1004.97
2017-05-10T09:16:36.870Z,1004.98
2017-05-10T09:17:38.325Z,1004.92
2017-05-10T09:18:39.788Z,1004.93
2017-05-10T09:19:41.255Z,1004.96
2017-05-10T09:20:42.782Z,1004.90
2017-05-10T09:21:44.299Z,1004.90
2017-05-10T09:22:45.735Z,1004.93
2017-05-10T09:23:47.189Z,1004.88
2017-05-10T09:24:48.726Z,1004.90
2017-05-10T09:25:50.200Z,1004.92
2017-05-10T09:26:51.641Z,1004.86
2017-05-10T09:27:53.082Z,1004.85
2017-05-10T09:28:54.521Z,1004.89
2017-05-10T09:29:55.967Z,1004.78
2017-05-10T09:30:57.405Z,1004.83
2017-05-10T09:31:58.841Z,1004.85
2017-05-10T09:33:00.281Z,1004.82
2017-05-10T09:34:01.715Z,1004.89
2017-05-10T09:35:03.167Z,1004.88
2017-05-10T09:36:04.606Z,1004.83
2017-05-10T09:37:06.049Z,1004.86
2017-05-10T09:38:07.511Z,1004.81
2017-05-10T09:39:08.987Z,1004.80
2017-05-10T09:40:10.475Z,1004.74
2017-05-10T09:41:11.946Z,1004.76
2017-05-10T09:42:13.417Z,1004.77
2017-05-10T09:43:14.888Z,1004.75
2017-05-10T09:44:16.657Z,1004.71
2017-05-10T09:45:18.090Z,1004.71
2017-05-10T09:46:19.564Z,1004.76
2017-05-10T09:47:21.089Z,1004.74
2017-05-10T09:48:23.342Z,1004.73
2017-05-10T09:49:24.811Z,1004.74
2017-05-10T09:50:26.414Z,1004.71
2017-05-10T09:51:28.119Z,1004.74
2017-05-10T09:52:29.747Z,1004.70
2017-05-10T09:53:31.443Z,1004.73
2017-05-10T09:54:33.325Z,1004.72
2017-05-10T09:55:35.417Z,1004.71
2017-05-10T09:56:36.864Z,1004.67
2017-05-10T09:57:38.297Z,1004.67
2017-05-10T09:58:39.794Z,1004.68
2017-05-10T09:59:41.225Z,1004.69
2017-05-10T10:00:42.716Z,1004.68
2017-05-10T10:01:44.160Z,1004.67
2017-05-10T10:02:45.621Z,1004.65
2017-05-10T10:03:47.087Z,1004.64
2017-05-10T10:04:48.540Z,1004.66
2017-05-10T10:05:49.989Z,1004.69
2017-05-10T10:06:51.461Z,1004.56
2017-05-10T10:07:52.902Z,1004.63
2017-05-10T10:08:54.430Z,1004.53
2017-05-10T10:09:55.870Z,1004.55
2017-05-10T10:10:57.311Z,1004.55
2017-05-10T10:11:58.749Z,1004.56
2017-05-10T10:13:00.188Z,1004.56
2017-05-10T10:14:02.283Z,1004.61
2017-05-10T10:15:03.845Z,1004.59
2017-05-10T10:16:05.705Z,1004.61
2017-05-10T10:17:07.134Z,1004.60
2017-05-10T10:18:08.621Z,1004.57
2017-05-10T10:19:10.109Z,1004.57
2017-05-10T10:20:11.664Z,1004.60
2017-05-10T10:21:13.127Z,1004.58
2017-05-10T10:22:14.557Z,1004.57
2017-05-10T10:23:15.990Z,1004.55
2017-05-10T10:24:17.435Z,1004.56
2017-05-10T10:25:18.941Z,1004.55
2017-05-10T10:26:20.384Z,1004.53
